aviador You're here:

KCOE Decoded Metar

COEUR D'ALENE in ID, USA
Report Time2017-06-25 18:56:00
UTC Time2017-06-25 19:07:50
Flight Rules vfr VFR
Wind010° at 10 kt
W.Decomp.*RWY 02: 8.7 kt HW 4.8 kt LCW
RWY 06: 3.6 kt HW 9.3 kt LCW
W.Rank010° ranks 23
Current wind is above 010° avg. (7.0)
Visibility9999 m
Phenomena:N/A
Clouds:N/A
Expected CloudBase > 7,200 ft AGL from Temp-Dew spread
CeilingNone
Temp29°C (ISA +19)
Dew Point11°C (33% RH)
Heat Index28.1°C
AAT25.7°C
QNH1020 hPa
Density Alt4,393 ft
Elevation2,320 ft
Report Wrong Elevation
Raw Report
METAR KCOE 251856Z AUTO 01010KT 10SM CLR 29/11 A3011 RMK AO2 SLP194
T02890106=

Extra information for KCOE:More info

Metar Taf Metar & Taf Last 4 Metars F.Rules Stats Wind Profile Meteogram Temp Stats Airport Information Weather charts Add Link Nearby VenuesMetar ALERT Operation Metar Decoded Social comments

AIRNAV info for KCOE